Time;durP1;ratioP1;P1;durP2;ratioP2;P2;SDS_P1;SDS_P2;PMS_P1;PMS_P2;Temp;Humidity;BMP_temperature;BMP_pressure;BME280_temperature;BME280_humidity;BME280_pressure;Samples;Min_cycle;Max_cycle;Signal;HPM_P1;HPM_P2
2021/01/02 00:02:42;;;;;;;47.45;26.60;;;;;;;0.58;84.20;100204.73;1610498;87;26449;-81
2021/01/02 00:05:14;;;;;;;49.70;27.45;;;;;;;0.55;84.40;100209.62;1610248;87;33659;-81
2021/01/02 00:08:17;;;;;;;47.05;27.70;;;;;;;0.61;84.69;100208.38;1606575;87;26704;-81
2021/01/02 00:11:04;;;;;;;46.02;28.27;;;;;;;0.64;84.62;100212.83;1611129;87;25715;-80
2021/01/02 00:13:47;;;;;;;46.40;27.90;;;;;;;0.69;84.76;100223.28;1601342;87;25531;-80
2021/01/02 00:16:48;;;;;;;47.00;26.52;;;;;;;0.74;84.76;100228.47;1693171;83;26229;-80
2021/01/02 00:19:31;;;;;;;47.78;26.45;;;;;;;0.70;84.53;100227.02;1690933;83;25506;-80
2021/01/02 00:22:11;;;;;;;45.33;26.48;;;;;;;0.66;84.45;100232.03;1698974;82;25905;-82
2021/01/02 00:24:55;;;;;;;46.73;26.33;;;;;;;0.65;84.57;100238.93;1635192;87;25754;-81
2021/01/02 00:27:34;;;;;;;50.05;27.58;;;;;;;0.59;84.45;100243.18;1626008;87;25864;-82
2021/01/02 00:30:08;;;;;;;53.73;27.37;;;;;;;0.56;84.59;100251.11;1618176;87;25926;-81
2021/01/02 00:32:59;;;;;;;49.65;26.45;;;;;;;0.58;84.82;100247.98;1619617;87;25595;-81
2021/01/02 00:35:28;;;;;;;52.67;28.23;;;;;;;0.65;84.93;100247.08;1616439;87;26308;-82
2021/01/02 00:38:05;;;;;;;53.17;28.57;;;;;;;0.68;84.75;100252.02;1626706;87;26490;-82
2021/01/02 00:40:34;;;;;;;54.70;29.23;;;;;;;0.62;84.65;100245.54;1606655;87;26087;-82
2021/01/02 00:43:03;;;;;;;51.58;28.05;;;;;;;0.66;84.86;100251.31;1616479;86;26480;-81
2021/01/02 00:45:34;;;;;;;51.30;28.42;;;;;;;0.70;84.94;100245.49;1614141;87;25935;-83
2021/01/02 00:48:04;;;;;;;51.25;29.07;;;;;;;0.74;84.93;100246.95;1613157;87;25865;-82
2021/01/02 00:50:31;;;;;;;51.77;28.15;;;;;;;0.79;84.99;100244.85;1608663;87;26680;-82
2021/01/02 00:53:21;;;;;;;52.62;28.75;;;;;;;0.83;84.89;100246.30;1635723;87;25985;-81
2021/01/02 00:56:05;;;;;;;53.90;27.65;;;;;;;0.88;84.91;100244.24;1628647;87;25957;-81
2021/01/02 00:58:57;;;;;;;47.10;27.98;;;;;;;0.94;84.84;100245.56;1635121;87;26538;-81
2021/01/02 01:01:32;;;;;;;48.25;27.22;;;;;;;0.95;84.76;100253.16;1636750;84;26400;-81
2021/01/02 01:04:47;;;;;;;52.05;27.73;;;;;;;0.96;84.75;100248.39;1675492;83;25580;-81
2021/01/02 01:07:19;;;;;;;49.90;29.12;;;;;;;0.98;84.71;100250.41;1641851;85;25768;-82
2021/01/02 01:09:49;;;;;;;55.60;30.15;;;;;;;0.99;84.65;100253.33;1657368;84;25847;-81
2021/01/02 01:12:19;;;;;;;52.35;30.75;;;;;;;1.01;84.73;100248.05;1657265;84;28300;-82
2021/01/02 01:14:48;;;;;;;49.80;28.52;;;;;;;1.04;84.68;100245.30;1658691;84;25834;-82
2021/01/02 01:17:23;;;;;;;48.80;29.42;;;;;;;1.00;84.61;100243.84;1657709;83;25760;-81
2021/01/02 01:19:55;;;;;;;52.50;27.40;;;;;;;0.99;84.63;100253.80;1659794;84;25856;-81
2021/01/02 01:22:27;;;;;;;47.93;27.45;;;;;;;1.04;84.83;100256.88;1630691;86;25792;-80
2021/01/02 01:25:04;;;;;;;48.90;27.30;;;;;;;1.04;84.64;100249.97;1660717;84;25918;-80
2021/01/02 01:28:00;;;;;;;55.40;31.40;;;;;;;1.04;84.62;100245.30;1652489;84;26617;-80
2021/01/02 01:30:30;;;;;;;50.90;28.12;;;;;;;1.07;84.80;100244.61;1671486;84;25258;-82
2021/01/02 01:33:01;;;;;;;52.70;29.75;;;;;;;1.13;84.80;100239.49;1630307;86;25800;-81
2021/01/02 01:35:27;;;;;;;;;;;;;;;1.18;84.78;100235.32;1658383;84;25935;-81
2021/01/02 01:37:58;;;;;;;51.08;28.95;;;;;;;1.14;84.44;100236.45;1657097;84;25892;-81
2021/01/02 01:40:28;;;;;;;51.45;29.35;;;;;;;1.13;84.53;100248.50;1655844;84;25845;-83
2021/01/02 01:43:05;;;;;;;53.78;29.55;;;;;;;1.09;84.39;100250.48;1654451;84;26246;-81
2021/01/02 01:45:43;;;;;;;57.40;29.95;;;;;;;1.08;84.43;100253.96;1655391;84;25865;-81
2021/01/02 01:48:13;;;;;;;52.10;29.87;;;;;;;1.11;84.44;100261.47;1656502;84;25781;-82
2021/01/02 01:51:25;;;;;;;53.13;28.12;;;;;;;1.08;84.42;100266.02;1604371;87;25919;-81
2021/01/02 01:54:34;;;;;;;56.92;30.17;;;;;;;1.04;84.38;100276.17;1594619;87;31886;-81
2021/01/02 01:57:04;;;;;;;52.95;28.62;;;;;;;0.94;84.17;100275.16;1585671;88;26622;-83
2021/01/02 02:00:00;;;;;;;50.78;29.65;;;;;;;0.88;84.35;100272.54;1597802;88;25975;-81
2021/01/02 02:02:47;;;;;;;52.30;30.37;;;;;;;0.84;84.44;100265.95;1591081;88;25947;-82
2021/01/02 02:05:23;;;;;;;56.42;30.90;;;;;;;0.87;84.69;100264.45;1579055;89;25831;-81
2021/01/02 02:08:11;;;;;;;53.87;30.32;;;;;;;0.92;84.80;100248.70;1582891;88;26320;-82
2021/01/02 02:10:45;;;;;;;52.25;29.90;;;;;;;0.99;84.79;100253.33;1591240;88;25744;-81
2021/01/02 02:13:21;;;;;;;55.78;31.20;;;;;;;1.04;84.79;100246.58;1559975;90;25375;-81
2021/01/02 02:15:57;;;;;;;55.25;32.40;;;;;;;1.05;84.67;100252.08;1585884;88;26575;-81
2021/01/02 02:18:29;;;;;;;52.17;29.55;;;;;;;1.07;84.59;100254.08;1592907;88;25901;-82
2021/01/02 02:20:59;;;;;;;57.70;31.23;;;;;;;1.10;84.74;100255.97;1603003;88;25832;-82
2021/01/02 02:23:43;;;;;;;57.88;31.17;;;;;;;1.13;84.59;100251.55;1607874;88;25584;-82
2021/01/02 02:26:35;;;;;;;59.53;32.83;;;;;;;1.11;84.59;100251.17;1568849;88;25685;-81
2021/01/02 02:29:22;;;;;;;56.13;30.43;;;;;;;1.14;84.70;100257.04;1582714;88;25901;-82
2021/01/02 02:31:47;;;;;;;56.77;33.02;;;;;;;1.17;84.63;100258.11;1591401;87;25961;-83
2021/01/02 02:34:15;;;;;;;52.95;27.82;;;;;;;1.15;84.55;100256.13;1615809;88;26597;-81
2021/01/02 02:36:43;;;;;;;56.63;30.57;;;;;;;1.18;84.51;100264.92;1600657;88;25863;-81
2021/01/02 02:39:13;;;;;;;59.35;32.03;;;;;;;1.19;84.53;100269.95;1604338;88;25630;-81
2021/01/02 02:41:52;;;;;;;61.90;32.88;;;;;;;1.21;84.49;100275.00;1624816;88;25923;-82
2021/01/02 02:44:31;;;;;;;63.23;33.98;;;;;;;1.21;84.47;100277.58;1599830;88;25909;-82
2021/01/02 02:47:01;;;;;;;60.35;31.85;;;;;;;1.18;84.43;100279.08;1603728;85;25768;-81
2021/01/02 02:49:35;;;;;;;60.75;32.05;;;;;;;1.17;84.54;100273.55;1670170;85;25815;-81
2021/01/02 02:52:26;;;;;;;63.70;34.13;;;;;;;1.11;84.86;100256.79;1673113;84;25957;-82
2021/01/02 02:54:53;;;;;;;61.53;32.08;;;;;;;1.07;84.50;100252.33;1662397;84;25825;-81
2021/01/02 02:57:24;;;;;;;54.08;31.80;;;;;;;1.18;84.61;100260.59;1627172;86;26311;-81
2021/01/02 02:59:51;;;;;;;58.42;31.62;;;;;;;1.19;84.64;100270.41;1596482;88;25848;-81
2021/01/02 03:02:17;;;;;;;53.28;30.52;;;;;;;1.21;84.69;100275.00;1592863;88;26443;-81
2021/01/02 03:04:44;;;;;;;63.58;33.78;;;;;;;1.22;84.65;100274.06;1622464;87;25978;-81
2021/01/02 03:07:11;;;;;;;60.80;33.55;;;;;;;1.24;84.64;100274.31;1600149;87;25878;-82
2021/01/02 03:09:39;;;;;;;66.02;36.20;;;;;;;1.24;84.55;100267.06;1608060;87;25942;-81
2021/01/02 03:12:06;;;;;;;58.75;32.63;;;;;;;1.21;84.52;100270.67;1602251;87;26001;-80
2021/01/02 03:14:33;;;;;;;62.60;31.77;;;;;;;1.19;84.57;100264.80;1608347;87;26519;-81
2021/01/02 03:17:00;;;;;;;61.70;33.50;;;;;;;1.20;84.66;100262.59;1578578;87;25788;-81
2021/01/02 03:19:29;;;;;;;61.20;31.35;;;;;;;1.22;84.69;100268.44;1614926;87;26494;-81
2021/01/02 03:21:56;;;;;;;56.28;31.90;;;;;;;1.23;84.63;100273.15;1624710;86;25985;-81
2021/01/02 03:24:22;;;;;;;57.78;31.50;;;;;;;1.26;84.67;100277.61;1596324;87;26002;-81
2021/01/02 03:26:49;;;;;;;61.53;33.05;;;;;;;1.25;84.66;100278.52;1603972;87;26010;-81
2021/01/02 03:29:16;;;;;;;57.30;30.88;;;;;;;1.27;84.64;100279.24;1602293;87;25892;-81
2021/01/02 03:31:42;;;;;;;59.35;33.50;;;;;;;1.27;84.48;100281.00;1595765;88;25743;-81
2021/01/02 03:34:08;;;;;;;59.27;30.57;;;;;;;1.24;84.49;100285.08;1605201;88;26493;-80
2021/01/02 03:36:35;;;;;;;63.28;32.58;;;;;;;1.23;84.52;100289.41;1624693;86;25848;-81
2021/01/02 03:39:01;;;;;;;65.32;35.45;;;;;;;1.21;84.45;100294.30;1613049;87;25337;-82
2021/01/02 03:41:28;;;;;;;62.25;32.42;;;;;;;1.17;84.58;100289.81;1607029;87;25770;-80
2021/01/02 03:43:55;;;;;;;63.25;33.67;;;;;;;1.19;84.60;100291.83;1602748;87;26510;-81
2021/01/02 03:46:29;;;;;;;60.83;31.68;;;;;;;1.19;84.63;100286.67;1599360;88;25991;-82
2021/01/02 03:48:56;;;;;;;62.80;31.35;;;;;;;1.19;84.61;100286.67;1579971;88;26035;-81
2021/01/02 03:51:25;;;;;;;61.53;31.60;;;;;;;1.20;84.66;100289.62;1610285;87;26198;-81
2021/01/02 03:53:52;;;;;;;62.05;32.67;;;;;;;1.25;84.73;100288.81;1621655;87;25628;-81
2021/01/02 03:56:19;;;;;;;54.15;31.50;;;;;;;1.30;84.78;100294.47;1638529;84;25798;-82
2021/01/02 03:58:46;;;;;;;55.88;30.12;;;;;;;1.32;84.64;100296.95;1678695;83;25770;-83
2021/01/02 04:01:13;;;;;;;59.75;35.45;;;;;;;1.34;84.64;100297.67;1679536;83;26696;-81
2021/01/02 04:03:40;;;;;;;62.75;32.88;;;;;;;1.35;84.62;100294.16;1678694;83;25844;-81
2021/01/02 04:06:08;;;;;;;60.60;32.38;;;;;;;1.34;84.58;100295.10;1648455;85;25544;-81
2021/01/02 04:08:34;;;;;;;58.23;31.15;;;;;;;1.36;84.67;100288.07;1645109;85;25857;-80
2021/01/02 04:11:01;;;;;;;58.45;31.80;;;;;;;1.36;84.57;100288.54;1661034;84;26349;-82
2021/01/02 04:13:27;;;;;;;54.63;31.62;;;;;;;1.33;84.50;100295.54;1648343;85;25800;-80
2021/01/02 04:15:54;;;;;;;63.85;32.60;;;;;;;1.30;84.41;100292.37;1646939;84;25876;-81
2021/01/02 04:18:21;;;;;;;55.58;30.88;;;;;;;1.25;84.47;100286.71;1673939;83;25787;-81
2021/01/02 04:20:48;;;;;;;64.00;33.25;;;;;;;1.31;84.61;100285.02;1681064;82;25719;-81
2021/01/02 04:23:15;;;;;;;52.60;28.87;;;;;;;1.36;84.69;100290.64;1673485;83;25800;-81
2021/01/02 04:25:41;;;;;;;49.45;28.83;;;;;;;1.37;84.52;100290.20;1675341;83;26334;-82
2021/01/02 04:28:11;;;;;;;60.55;33.45;;;;;;;1.39;84.54;100292.18;1674162;83;26211;-82
2021/01/02 04:30:37;;;;;;;57.62;32.40;;;;;;;1.39;84.47;100296.05;1674109;83;25848;-82
2021/01/02 04:33:04;;;;;;;60.58;30.70;;;;;;;1.38;84.41;100298.27;1675837;83;25736;-82
2021/01/02 04:35:31;;;;;;;55.88;30.50;;;;;;;1.31;84.28;100297.42;1674431;83;25739;-82
2021/01/02 04:38:03;;;;;;;59.88;31.37;;;;;;;1.31;84.50;100299.18;1672601;83;25859;-82
2021/01/02 04:40:29;;;;;;;59.55;30.90;;;;;;;1.27;84.43;100302.41;1676080;83;25767;-83
2021/01/02 04:42:57;;;;;;;55.40;29.77;;;;;;;1.27;84.51;100304.17;1676621;83;25762;-81
2021/01/02 04:45:24;;;;;;;56.55;30.50;;;;;;;1.23;84.43;100311.30;1673596;83;25690;-81
2021/01/02 04:47:51;;;;;;;55.43;29.98;;;;;;;1.18;84.33;100315.93;1675278;83;25747;-81
2021/01/02 04:50:18;;;;;;;52.75;29.27;;;;;;;1.17;84.51;100316.84;1673831;83;25816;-82
2021/01/02 04:52:46;;;;;;;54.27;29.85;;;;;;;1.19;84.52;100324.00;1674736;83;25803;-82
2021/01/02 04:55:17;;;;;;;50.00;29.92;;;;;;;1.16;84.42;100329.83;1676352;83;25864;-82
2021/01/02 04:57:46;;;;;;;55.00;30.25;;;;;;;1.21;84.57;100332.92;1673738;83;25799;-81
2021/01/02 05:00:15;;;;;;;58.08;31.70;;;;;;;1.22;84.58;100334.08;1671937;83;26330;-82
2021/01/02 05:02:44;;;;;;;60.35;31.52;;;;;;;1.20;84.61;100341.55;1651409;85;25765;-82
2021/01/02 05:05:11;;;;;;;54.05;30.23;;;;;;;1.21;84.72;100341.92;1673910;83;25741;-82
2021/01/02 05:07:37;;;;;;;54.03;30.82;;;;;;;1.21;84.58;100330.34;1685133;83;25815;-82
2021/01/02 05:10:05;;;;;;;59.90;28.40;;;;;;;1.19;84.62;100335.59;1681041;83;25779;-81
2021/01/02 05:12:34;;;;;;;51.35;28.02;;;;;;;1.18;84.60;100340.86;1688459;83;25862;-82
2021/01/02 05:15:05;;;;;;;50.73;28.50;;;;;;;1.13;84.54;100335.20;1687307;83;26370;-83
2021/01/02 05:17:31;;;;;;;52.65;28.67;;;;;;;1.11;84.54;100345.11;1684805;83;25748;-81
2021/01/02 05:20:11;;;;;;;56.13;31.23;;;;;;;1.16;84.68;100340.12;1683700;83;25705;-82
2021/01/02 05:22:41;;;;;;;51.20;28.95;;;;;;;1.18;84.74;100337.00;1653742;84;27822;-81
2021/01/02 05:25:17;;;;;;;60.55;31.35;;;;;;;1.22;84.71;100332.80;1682898;83;25848;-82
2021/01/02 05:27:46;;;;;;;56.33;30.88;;;;;;;1.17;84.64;100337.43;1678619;83;26328;-81
2021/01/02 05:30:27;;;;;;;53.80;28.15;;;;;;;1.11;84.56;100339.97;1691767;83;26233;-82
2021/01/02 05:33:08;;;;;;;48.87;27.07;;;;;;;1.08;84.58;100336.78;1683090;83;26315;-83
2021/01/02 05:35:46;;;;;;;55.15;28.62;;;;;;;1.08;84.60;100341.94;1677558;83;26444;-81
2021/01/02 05:38:24;;;;;;;53.60;28.40;;;;;;;1.05;84.65;100346.01;1687823;83;25727;-82
2021/01/02 05:40:56;;;;;;;47.05;27.95;;;;;;;1.09;84.89;100352.14;1692502;83;26358;-81
2021/01/02 05:43:25;;;;;;;50.73;28.27;;;;;;;1.16;84.85;100353.81;1681441;83;25711;-81
2021/01/02 05:45:52;;;;;;;57.20;29.90;;;;;;;1.21;84.81;100360.77;1684028;83;26378;-82
2021/01/02 05:48:26;;;;;;;52.35;29.18;;;;;;;1.22;84.71;100363.69;1688621;83;26394;-82
2021/01/02 05:50:55;;;;;;;54.05;29.55;;;;;;;1.21;84.67;100365.91;1680435;83;25796;-82
2021/01/02 05:53:32;;;;;;;50.83;28.83;;;;;;;1.18;84.64;100369.98;1682906;83;35065;-82
2021/01/02 05:56:08;;;;;;;57.45;29.52;;;;;;;1.18;84.74;100373.84;1681522;83;26447;-81
2021/01/02 05:58:45;;;;;;;50.17;27.40;;;;;;;1.16;84.71;100379.56;1684666;83;25857;-82
2021/01/02 06:01:16;;;;;;;52.90;28.10;;;;;;;1.19;84.75;100385.78;1678450;83;26379;-82
2021/01/02 06:03:47;;;;;;;46.98;28.80;;;;;;;1.19;84.65;100382.39;1680472;83;26296;-82
2021/01/02 06:06:19;;;;;;;49.75;27.62;;;;;;;1.16;84.57;100385.17;1666220;84;26065;-82
2021/01/02 06:08:50;;;;;;;49.95;29.05;;;;;;;1.14;84.55;100376.73;1664236;84;25863;-82
2021/01/02 06:11:22;;;;;;;53.75;30.90;;;;;;;1.20;84.77;100369.87;1654386;84;25754;-82
2021/01/02 06:13:51;;;;;;;56.75;30.40;;;;;;;1.20;84.58;100381.45;1664838;84;26583;-83
2021/01/02 06:16:18;;;;;;;51.55;29.37;;;;;;;1.24;84.74;100385.48;1662439;84;25851;-83
2021/01/02 06:18:46;;;;;;;51.50;28.32;;;;;;;1.23;84.62;100381.27;1664088;84;25865;-81
2021/01/02 06:21:18;;;;;;;50.00;29.40;;;;;;;1.19;84.56;100372.91;1661085;84;25789;-82
2021/01/02 06:23:47;;;;;;;50.60;28.23;;;;;;;1.16;84.57;100380.03;1664483;84;25804;-81
2021/01/02 06:26:16;;;;;;;51.08;27.05;;;;;;;1.18;84.67;100394.44;1664476;84;26495;-81
2021/01/02 06:28:45;;;;;;;44.08;25.27;;;;;;;1.17;84.52;100395.82;1664354;84;26299;-82
2021/01/02 06:31:17;;;;;;;49.23;27.52;;;;;;;1.11;84.47;100397.06;1663315;84;26349;-83
2021/01/02 06:33:47;;;;;;;50.85;28.23;;;;;;;1.09;84.52;100398.47;1664399;84;26332;-81
2021/01/02 06:36:34;;;;;;;54.58;28.50;;;;;;;1.14;84.62;100408.90;1663836;84;26342;-83
2021/01/02 06:39:28;;;;;;;54.30;30.00;;;;;;;1.15;84.64;100407.52;1662340;84;26421;-82
2021/01/02 06:41:56;;;;;;;56.53;32.55;;;;;;;1.17;84.64;100400.97;1657971;84;26326;-82
2021/01/02 06:44:45;;;;;;;51.10;29.23;;;;;;;1.17;84.69;100409.98;1662712;84;25763;-83
2021/01/02 06:47:21;;;;;;;51.13;28.77;;;;;;;1.18;84.70;100411.17;1662925;84;25813;-82
2021/01/02 06:49:51;;;;;;;50.75;27.98;;;;;;;1.20;84.79;100415.77;1665160;84;26664;-81
2021/01/02 06:52:35;;;;;;;49.25;27.67;;;;;;;1.21;84.75;100413.54;1663965;84;25826;-83
2021/01/02 06:55:22;;;;;;;51.73;28.57;;;;;;;1.21;84.64;100414.01;1663579;84;26604;-83
2021/01/02 06:57:53;;;;;;;50.50;28.75;;;;;;;1.20;84.57;100414.91;1663255;84;25778;-84
2021/01/02 07:00:26;;;;;;;52.03;30.57;;;;;;;1.19;84.49;100421.82;1665866;83;25630;-82
2021/01/02 07:02:57;;;;;;;51.60;29.67;;;;;;;1.15;84.47;100421.68;1660713;84;25857;-82
2021/01/02 07:05:44;;;;;;;51.88;28.65;;;;;;;1.18;84.65;100421.94;1677953;83;25841;-83
2021/01/02 07:08:43;;;;;;;51.65;28.73;;;;;;;1.19;84.71;100424.86;1659174;85;26407;-83
2021/01/02 07:11:46;;;;;;;53.42;28.27;;;;;;;1.20;84.66;100429.08;1697920;83;26349;-82
2021/01/02 07:14:18;;;;;;;51.25;28.25;;;;;;;1.16;84.61;100423.78;1689441;83;25837;-81
2021/01/02 07:16:51;;;;;;;44.95;27.25;;;;;;;1.16;84.63;100434.08;1676659;83;26382;-82
2021/01/02 07:19:37;;;;;;;50.12;26.60;;;;;;;1.19;84.79;100439.02;1668405;84;26804;-82
2021/01/02 07:22:14;;;;;;;54.38;29.98;;;;;;;1.21;84.66;100444.43;1673328;83;25732;-82
2021/01/02 07:24:52;;;;;;;49.48;28.40;;;;;;;1.22;84.63;100440.09;1682228;83;26356;-83
2021/01/02 07:27:28;;;;;;;51.18;29.10;;;;;;;1.24;84.64;100436.97;1665172;83;25819;-83
2021/01/02 07:29:58;;;;;;;49.58;28.95;;;;;;;1.21;84.54;100441.85;1679568;83;25298;-83
2021/01/02 07:32:29;;;;;;;42.35;25.75;;;;;;;1.18;84.53;100444.64;1681828;83;26541;-83
2021/01/02 07:35:01;;;;;;;47.73;27.17;;;;;;;1.06;84.23;100442.86;1649948;85;26048;-84
2021/01/02 07:37:33;;;;;;;46.95;26.12;;;;;;;1.03;84.43;100452.08;1643295;86;25892;-83
2021/01/02 07:40:14;;;;;;;47.38;25.82;;;;;;;0.98;84.38;100458.84;1630499;86;25762;-82
2021/01/02 07:42:53;;;;;;;52.70;29.50;;;;;;;0.96;84.54;100460.68;1652448;84;26359;-83
2021/01/02 07:45:30;;;;;;;48.10;25.35;;;;;;;0.97;84.69;100462.31;1677917;84;25995;-84
2021/01/02 07:47:59;;;;;;;46.15;27.22;;;;;;;0.96;84.63;100465.83;1673230;83;25772;-84
2021/01/02 07:50:28;;;;;;;50.48;27.35;;;;;;;1.02;84.77;100464.59;1676156;83;26330;-83
2021/01/02 07:53:02;;;;;;;44.10;27.10;;;;;;;1.03;84.71;100468.34;1672764;84;25796;-81
2021/01/02 07:55:32;;;;;;;51.70;29.32;;;;;;;1.05;84.73;100468.25;1675148;84;25578;-84
2021/01/02 07:58:00;;;;;;;55.10;30.08;;;;;;;1.08;84.83;100467.58;1690502;83;26885;-83
2021/01/02 08:00:27;;;;;;;47.10;27.50;;;;;;;1.03;84.69;100470.09;1690527;83;25743;-83
2021/01/02 08:03:02;;;;;;;52.75;29.35;;;;;;;1.02;84.75;100471.85;1686695;83;26329;-82
2021/01/02 08:05:29;;;;;;;55.35;29.57;;;;;;;1.07;84.88;100476.23;1686304;83;25538;-83
2021/01/02 08:07:59;;;;;;;53.35;28.73;;;;;;;1.08;84.83;100480.45;1682969;83;25482;-82
2021/01/02 08:10:28;;;;;;;51.50;29.02;;;;;;;1.09;84.74;100474.83;1683163;83;25826;-82
2021/01/02 08:13:00;;;;;;;51.92;27.17;;;;;;;1.14;84.90;100483.55;1681589;83;26413;-83
2021/01/02 08:15:37;;;;;;;50.60;28.40;;;;;;;1.18;84.78;100490.16;1681230;83;26410;-83
2021/01/02 08:18:07;;;;;;;53.50;31.20;;;;;;;1.14;84.62;100493.84;1681893;84;25793;-82
2021/01/02 08:20:35;;;;;;;48.70;30.10;;;;;;;1.16;84.76;100495.39;1675647;84;25785;-83
2021/01/02 08:23:11;;;;;;;49.27;29.27;;;;;;;1.21;84.84;100504.92;1681135;83;25936;-84
2021/01/02 08:25:38;;;;;;;47.67;27.87;;;;;;;1.21;84.77;100503.64;1684472;83;25599;-82
2021/01/02 08:28:05;;;;;;;47.88;28.20;;;;;;;1.11;84.40;100511.13;1672916;84;25685;-82
2021/01/02 08:30:32;;;;;;;51.92;28.50;;;;;;;1.09;84.66;100511.71;1685236;83;26063;-82
2021/01/02 08:33:00;;;;;;;43.40;27.13;;;;;;;1.14;84.82;100513.97;1686100;83;25483;-82
2021/01/02 08:35:31;;;;;;;48.75;27.15;;;;;;;1.14;84.69;100515.72;1691687;83;25870;-83
2021/01/02 08:38:05;;;;;;;49.93;28.95;;;;;;;1.15;84.66;100514.34;1683980;83;26408;-82
2021/01/02 08:40:38;;;;;;;47.93;27.73;;;;;;;1.11;84.60;100516.27;1674411;84;25590;-83
2021/01/02 08:43:07;;;;;;;53.70;28.55;;;;;;;1.08;84.51;100522.09;1680662;83;26408;-82
2021/01/02 08:45:39;;;;;;;46.88;26.10;;;;;;;1.07;84.59;100530.28;1665492;83;25827;-83
2021/01/02 08:48:09;;;;;;;47.03;27.98;;;;;;;1.04;84.47;100535.63;1684235;83;25666;-83
2021/01/02 08:50:39;;;;;;;50.80;27.65;;;;;;;0.99;84.41;100535.10;1686389;83;25637;-82
2021/01/02 08:53:32;;;;;;;51.70;29.80;;;;;;;0.95;84.55;100534.92;1672835;84;25495;-81
2021/01/02 08:56:19;;;;;;;54.45;30.12;;;;;;;1.00;84.70;100539.78;1669598;84;26398;-83
2021/01/02 08:58:46;;;;;;;51.65;28.47;;;;;;;1.06;84.86;100532.95;1680480;83;25843;-83
2021/01/02 09:01:12;;;;;;;80.95;42.58;;;;;;;1.04;84.75;100524.05;1683491;83;25838;-83
2021/01/02 09:03:38;;;;;;;63.63;36.15;;;;;;;1.21;84.56;100533.71;1679801;83;25736;-82
2021/01/02 09:06:27;;;;;;;68.42;38.88;;;;;;;1.21;84.56;100533.71;1669804;84;25804;-82
2021/01/02 09:09:06;;;;;;;162.65;95.60;;;;;;;1.24;84.73;100529.17;1686653;83;25966;-82
2021/01/02 09:11:48;;;;;;;88.30;56.08;;;;;;;1.31;84.70;100535.58;1671909;83;25854;-83
2021/01/02 09:14:14;;;;;;;126.70;87.05;;;;;;;1.21;84.13;100538.39;1671161;83;25992;-82
2021/01/02 09:17:02;;;;;;;71.12;47.38;;;;;;;1.17;84.22;100533.53;1681476;83;25971;-81
2021/01/02 09:19:29;;;;;;;76.28;57.80;;;;;;;1.10;84.21;100539.09;1686112;83;25638;-82
2021/01/02 09:21:57;;;;;;;46.65;29.98;;;;;;;1.11;84.31;100534.76;1677744;83;25851;-82
2021/01/02 09:24:27;;;;;;;47.15;33.30;;;;;;;1.09;84.22;100531.45;1675275;83;25797;-82
2021/01/02 09:26:53;;;;;;;58.33;37.20;;;;;;;1.10;84.37;100533.13;1680806;83;26397;-84
2021/01/02 09:29:19;;;;;;;54.15;34.25;;;;;;;1.15;84.51;100527.69;1683394;83;25751;-82
2021/01/02 09:31:46;;;;;;;43.17;26.42;;;;;;;1.25;84.75;100526.95;1679499;83;25729;-84
2021/01/02 09:34:12;;;;;;;54.55;32.58;;;;;;;1.35;84.74;100533.62;1683335;83;26604;-82
2021/01/02 09:36:41;;;;;;;51.30;29.07;;;;;;;1.42;84.61;100537.89;1680200;82;25875;-82
2021/01/02 09:39:07;;;;;;;53.45;32.83;;;;;;;1.42;84.45;100536.16;1674910;83;26437;-83
2021/01/02 09:41:34;;;;;;;45.33;28.02;;;;;;;1.28;84.32;100522.91;1676373;83;25756;-83
2021/01/02 09:44:01;;;;;;;56.58;30.20;;;;;;;1.39;84.21;100549.25;1677758;83;26369;-82
2021/01/02 09:46:30;;;;;;;53.87;29.50;;;;;;;1.38;84.40;100549.33;1677012;83;25812;-81
2021/01/02 09:49:00;;;;;;;49.98;28.05;;;;;;;1.43;84.55;100547.28;1680053;83;25850;-82
2021/01/02 09:51:30;;;;;;;51.33;29.52;;;;;;;1.48;84.37;100545.23;1680612;83;25711;-81
2021/01/02 09:53:59;;;;;;;53.38;31.87;;;;;;;1.51;84.43;100545.02;1672142;83;26313;-83
2021/01/02 09:56:26;;;;;;;52.93;30.85;;;;;;;1.57;84.49;100531.72;1659706;83;26099;-83
2021/01/02 09:58:53;;;;;;;51.00;30.08;;;;;;;1.64;84.49;100533.45;1679781;83;25863;-83
2021/01/02 10:01:22;;;;;;;51.02;31.00;;;;;;;1.70;84.43;100537.70;1669159;83;26312;-83
2021/01/02 10:03:48;;;;;;;56.48;34.67;;;;;;;1.72;84.38;100532.46;1629265;86;25944;-82
2021/01/02 10:06:15;;;;;;;62.08;35.70;;;;;;;1.74;84.34;100534.45;1626479;86;25932;-81
2021/01/02 10:08:42;;;;;;;56.42;33.80;;;;;;;1.71;84.15;100526.45;1615077;86;26508;-83
2021/01/02 10:11:09;;;;;;;60.10;32.33;;;;;;;1.70;84.04;100525.30;1635193;86;25840;-83
2021/01/02 10:13:35;;;;;;;52.85;32.90;;;;;;;1.71;84.28;100524.36;1646167;85;25736;-81
2021/01/02 10:16:01;;;;;;;57.88;30.20;;;;;;;1.76;84.24;100521.00;1647538;85;26385;-82
2021/01/02 10:18:28;;;;;;;52.55;31.33;;;;;;;1.72;83.90;100524.73;1620915;86;26376;-83
2021/01/02 10:20:57;;;;;;;61.23;31.93;;;;;;;1.74;84.06;100526.72;1636170;86;25781;-82
2021/01/02 10:23:23;;;;;;;53.23;31.37;;;;;;;1.74;84.06;100521.56;1637271;86;26438;-82
2021/01/02 10:25:50;;;;;;;58.23;33.20;;;;;;;1.74;83.85;100518.52;1635292;86;26421;-82
2021/01/02 10:28:16;;;;;;;56.45;33.05;;;;;;;1.75;84.11;100518.08;1633975;86;25815;-84
2021/01/02 10:30:43;;;;;;;56.02;34.15;;;;;;;1.80;84.08;100519.88;1632104;86;26420;-83
2021/01/02 10:33:09;;;;;;;57.05;33.95;;;;;;;1.80;84.08;100516.45;1633572;86;25892;-82
2021/01/02 10:35:36;;;;;;;63.78;35.10;;;;;;;1.77;83.80;100521.35;1631291;86;25811;-83
2021/01/02 10:38:05;;;;;;;56.33;32.03;;;;;;;1.77;84.07;100512.34;1637372;86;25903;-82
2021/01/02 10:40:31;;;;;;;52.55;31.23;;;;;;;1.77;84.34;100491.28;1632853;86;26510;-83
2021/01/02 10:42:58;;;;;;;55.95;31.27;;;;;;;1.77;84.34;100491.28;1646483;85;25833;-83
2021/01/02 10:45:25;;;;;;;49.93;32.17;;;;;;;1.89;83.95;100516.66;1644994;85;26038;-84
2021/01/02 10:47:51;;;;;;;46.08;29.72;;;;;;;1.88;83.84;100505.16;1637832;85;26433;-84
2021/01/02 10:50:18;;;;;;;54.73;32.33;;;;;;;1.95;84.08;100508.50;1648590;85;26421;-82
2021/01/02 10:52:44;;;;;;;57.48;32.00;;;;;;;2.01;84.09;100498.23;1652757;85;25933;-82
2021/01/02 10:55:12;;;;;;;49.88;30.55;;;;;;;2.05;83.98;100495.81;1643031;85;25761;-83
2021/01/02 10:57:38;;;;;;;55.23;31.55;;;;;;;2.10;83.95;100485.16;1641289;85;25867;-84
2021/01/02 11:00:07;;;;;;;46.48;29.42;;;;;;;2.13;83.82;100486.27;1643803;85;26462;-85
2021/01/02 11:02:37;;;;;;;60.00;32.90;;;;;;;2.13;83.75;100484.97;1642653;85;25828;-84
2021/01/02 11:05:04;;;;;;;57.57;34.20;;;;;;;2.15;83.67;100484.37;1641320;85;25724;-82
2021/01/02 11:07:30;;;;;;;58.30;33.83;;;;;;;2.12;83.56;100491.05;1644541;85;25880;-83
2021/01/02 11:09:59;;;;;;;52.00;33.30;;;;;;;2.13;83.59;100497.86;1685296;83;25911;-81
2021/01/02 11:12:27;;;;;;;49.58;30.88;;;;;;;2.16;83.63;100492.02;1681680;83;26513;-82
2021/01/02 11:14:53;;;;;;;54.30;32.30;;;;;;;2.16;83.59;100484.75;1683863;83;26854;-83
2021/01/02 11:17:21;;;;;;;60.23;35.80;;;;;;;2.17;83.44;100481.23;1683348;83;26653;-83
2021/01/02 11:22:17;;;;;;;53.98;33.85;;;;;;;2.15;83.36;100486.48;1624017;86;25832;-82
2021/01/02 11:24:46;;;;;;;60.43;36.23;;;;;;;2.12;83.26;100481.55;1623914;86;25832;-82
2021/01/02 11:27:18;;;;;;;63.80;37.65;;;;;;;2.13;83.33;100479.34;1625208;86;26107;-82
2021/01/02 11:29:46;;;;;;;79.22;45.67;;;;;;;2.16;83.40;100493.31;1623679;86;25894;-83
2021/01/02 11:32:13;;;;;;;66.30;38.60;;;;;;;2.12;83.26;100494.91;1626163;86;25634;-82
2021/01/02 11:34:40;;;;;;;67.00;42.43;;;;;;;2.12;83.26;100494.91;1635554;86;25897;-82
2021/01/02 11:37:09;;;;;;;86.57;62.00;;;;;;;2.00;83.37;100476.80;1631745;85;25974;-82
2021/01/02 11:39:37;;;;;;;66.53;44.30;;;;;;;2.13;83.26;100478.53;1606419;87;25781;-82
2021/01/02 11:42:08;;;;;;;56.83;36.58;;;;;;;2.13;83.26;100478.53;1562499;89;26542;-82
2021/01/02 11:44:35;;;;;;;57.15;34.20;;;;;;;2.16;83.61;100485.57;1604772;87;25881;-83